Latest Weather Observations for Moomba Airport

IDS60801

Issued at 2:11 pm CST Thursday 1 October 2020 (issued every 10 minutes, with the page automatically refreshed every 10 minutes)

About weather observations | Map of weather stations | Latest weather observations for SA | Other Formats
Station Details ID: 017123 Name: MOOMBA AIRPORT Lat: -28.10 Lon: 140.20 Height: 37.8 m
Data from the previous 72 hours. | See also: Recent months at Moomba Airport
Date/Time
CST
Temp
°C
App
Temp
°C
Dew
Point
°C
Rel
Hum
%
Delta-T
°C
Wind Press
QNH
hPa
Press
MSL
hPa
Rain since
9am
mm
Dir  Spd
km/h
Gust
km/h
Spd
kts
Gust
kts
01/02:00pm 29.9 27.6 5.9 22 12.7 ESE 7 13 4 7 1018.1 1018.0 0.0
01/01:30pm 29.5 26.8 5.6 22 12.5 SSE 9 17 5 9 1018.4 1018.3 0.0
01/01:00pm 29.0 26.7 5.8 23 12.2 S 7 13 4 7 1018.6 1018.5 0.0
01/12:30pm 28.6 26.4 6.1 24 11.8 E 7 17 4 9 1019.0 1018.9 0.0
01/12:00pm 28.2 24.9 6.3 25 11.5 NE 13 20 7 11 1019.2 1019.1 0.0
01/11:30am 27.8 23.8 6.6 26 11.2 NE 17 24 9 13 1019.5 1019.4 0.0
01/11:00am 26.9 22.4 6.3 27 10.8 ENE 19 24 10 13 1019.8 1019.7 0.0
01/10:30am 26.5 22.0 7.0 29 10.3 NE 20 28 11 15 1020.1 1020.0 0.0
01/10:00am 25.6 20.5 7.7 32 9.5 ENE 24 28 13 15 1020.3 1020.2 0.0
01/09:30am 24.5 19.4 7.6 34 8.9 ENE 24 32 13 17 1020.3 1020.2 0.0
01/09:00am 23.1 18.5 8.0 38 7.9 ENE 22 28 12 15 1020.4 1020.3 0.0
01/08:30am 21.8 17.1 7.6 40 7.4 E 22 26 12 14 1020.3 1020.2 0.0
01/08:00am 20.0 15.8 7.4 44 6.4 E 19 24 10 13 1020.0 1019.9 0.0
01/07:30am 18.0 15.0 6.2 46 5.8 ENE 11 15 6 8 1019.8 1019.7 0.0
01/07:00am 15.6 13.2 5.2 50 4.9 E 7 11 4 6 1019.3 1019.2 0.0
01/06:30am 14.1 11.7 4.4 52 4.5 ESE 6 9 3 5 1018.9 1018.8 0.0
01/06:00am 12.7 10.2 3.9 55 4.0 ESE 6 7 3 4 1018.6 1018.5 0.0
01/05:30am 13.6 10.7 4.5 54 4.2 SSE 9 11 5 6 1018.3 1018.2 0.0
01/05:00am 12.4 9.0 3.9 56 3.8 ENE 11 13 6 7 1017.4 1017.3 0.0
01/04:30am 12.3 9.6 3.8 56 3.8 ENE 7 7 4 4 1017.3 1017.2 0.0
01/04:00am 13.3 10.8 3.7 52 4.3 SSE 6 9 3 5 1017.2 1017.1 0.0
01/03:30am 13.8 11.0 3.3 49 4.7 S 7 9 4 5 1017.0 1016.9 0.0
01/03:00am 14.3 11.6 3.7 49 4.8 SSW 7 9 4 5 1017.0 1016.9 0.0
01/02:30am 14.9 11.8 3.4 46 5.2 SSW 9 11 5 6 1017.0 1016.9 0.0
01/02:00am 14.9 12.1 3.4 46 5.2 SSW 7 9 4 5 1016.8 1016.7 0.0
01/01:30am 15.4 12.6 3.2 44 5.5 SSW 7 11 4 6 1017.0 1016.9 0.0
01/01:00am 15.8 13.2 3.3 43 5.7 SSE 6 6 3 3 1017.1 1017.0 0.0
01/12:30am 16.6 13.8 3.0 40 6.2 SE 7 9 4 5 1017.2 1017.1 0.0
01/12:00am 16.6 13.8 3.0 40 6.2 SE 7 9 4 5 1017.1 1017.0 0.0
 
Date/Time
CST
Temp
°C
App
Temp
°C
Dew
Point
°C
Rel
Hum
%
Delta-T
°C
Wind Press
QNH
hPa
Press
MSL
hPa
Rain since
9am
mm
Dir  Spd
km/h
Gust
km/h
Spd
kts
Gust
kts
30/11:30pm 17.1 14.3 3.1 39 6.4 SE 7 11 4 6 1016.9 1016.8 0.0
30/11:00pm 17.4 14.6 2.2 36 6.9 E 6 7 3 4 1016.6 1016.5 0.0
30/10:30pm 18.8 15.8 2.2 33 7.6 SSE 7 11 4 6 1016.5 1016.4 0.0
30/10:00pm 19.7 16.4 2.6 32 7.9 SSE 9 15 5 8 1016.4 1016.3 0.0
30/09:30pm 18.8 16.0 1.8 32 7.7 SW 6 7 3 4 1016.2 1016.1 0.0
30/09:00pm 19.3 16.3 1.8 31 8.0 SSW 7 9 4 5 1016.0 1015.9 0.0
30/08:30pm 19.6 16.7 1.6 30 8.2 SSW 6 7 3 4 1015.7 1015.6 0.0
30/08:00pm 19.9 16.5 1.8 30 8.3 SW 9 11 5 6 1015.6 1015.5 0.0
30/07:30pm 20.5 17.5 1.9 29 8.6 SW 7 9 4 5 1015.0 1014.9 0.0
30/07:00pm 22.1 18.7 1.7 26 9.5 SW 9 13 5 7 1014.5 1014.4 0.0
30/06:30pm 23.6 19.3 1.3 23 10.4 SW 13 17 7 9 1014.0 1013.9 0.0
30/06:00pm 24.9 19.6 1.7 22 11.0 SW 19 24 10 13 1013.5 1013.4 0.0
30/05:30pm 25.6 19.4 2.3 22 11.3 SW 24 33 13 18 1013.1 1013.0 0.0
30/05:00pm 26.2 20.1 2.8 22 11.4 SW 24 33 13 18 1012.8 1012.7 0.0
30/04:30pm 26.7 20.5 1.9 20 12.0 SW 24 32 13 17 1012.6 1012.5 0.0
30/04:00pm 26.9 21.5 2.7 21 11.9 WSW 20 28 11 15 1012.3 1012.2 0.0
30/03:30pm 27.0 22.4 3.5 22 11.7 WSW 17 26 9 14 1012.3 1012.2 0.0
30/03:00pm 26.4 21.4 3.6 23 11.3 SW 19 30 10 16 1012.4 1012.3 0.0
30/02:30pm 26.4 21.4 4.8 25 11.0 SW 20 32 11 17 1012.8 1012.7 0.0
30/02:00pm 25.6 21.0 5.8 28 10.2 SW 19 32 10 17 1013.0 1012.9 0.0
30/01:30pm 25.3 20.7 6.5 30 9.8 SW 20 28 11 15 1013.6 1013.5 0.0
30/01:00pm 24.9 20.3 5.7 29 9.8 SW 19 28 10 15 1013.9 1013.8 0.0
30/12:30pm 24.5 20.4 6.3 31 9.4 SSW 17 22 9 12 1014.3 1014.2 0.0
30/12:00pm 23.8 19.3 6.1 32 9.0 SW 19 24 10 13 1014.8 1014.7 0.0
30/11:30am 23.2 18.7 6.1 33 8.7 SSW 19 28 10 15 1015.1 1015.0 0.0
30/11:00am 23.4 18.9 7.1 35 8.5 SSW 20 28 11 15 1015.4 1015.3 0.0
30/10:30am 22.6 17.1 6.0 34 8.4 SSW 24 32 13 17 1015.5 1015.4 0.0
30/10:00am 21.8 16.6 7.2 39 7.5 SSW 24 33 13 18 1015.7 1015.6 0.0
30/09:30am 21.8 16.5 8.3 42 7.1 SSW 26 39 14 21 1015.8 1015.7 0.0
30/09:00am 20.8 16.8 9.1 47 6.2 SSW 20 28 11 15 1016.0 1015.9 0.0
30/08:30am 19.5 15.6 9.4 52 5.3 SSW 20 26 11 14 1016.0 1015.9 0.0
30/08:00am 18.5 15.1 9.3 55 4.8 SSW 17 24 9 13 1015.7 1015.6 0.0
30/07:30am 16.7 14.0 9.1 61 3.9 SW 13 17 7 9 1015.4 1015.3 0.0
30/07:00am 15.2 12.8 8.7 65 3.3 SW 11 15 6 8 1015.1 1015.0 0.0
30/06:30am 14.2 11.3 8.2 67 3.0 SW 13 19 7 10 1014.6 1014.5 0.0
30/06:00am 14.2 10.1 7.7 65 3.2 SW 19 24 10 13 1014.1 1014.0 0.0
30/05:30am 13.9 10.6 7.9 67 3.0 WSW 15 19 8 10 1013.6 1013.5 0.0
30/05:00am 14.3 10.0 8.0 66 3.1 WSW 20 24 11 13 1013.1 1013.0 0.0
30/04:30am 14.9 11.3 8.4 65 3.3 SW 17 20 9 11 1012.9 1012.8 0.0
30/04:00am 15.1 11.5 8.3 64 3.4 WSW 17 20 9 11 1012.7 1012.6 0.0
30/03:30am 15.6 11.6 8.4 62 3.7 WSW 19 20 10 11 1012.5 1012.4 0.0
30/03:00am 16.2 12.2 8.4 60 4.0 WSW 19 22 10 12 1012.6 1012.5 0.0
30/02:30am 16.8 13.3 8.8 59 4.1 WSW 17 20 9 11 1012.7 1012.6 0.0
30/02:00am 16.5 13.1 7.7 56 4.4 W 15 17 8 9 1013.0 1012.9 0.0
30/01:30am 17.8 14.3 7.0 49 5.4 W 15 19 8 10 1013.3 1013.2 0.0
30/01:00am 17.5 14.4 7.3 51 5.1 WNW 13 15 7 8 1013.7 1013.6 0.0
30/12:30am 17.1 15.0 8.3 56 4.5 WSW 9 11 5 6 1014.0 1013.9 0.0
30/12:00am 18.3 16.1 8.0 51 5.3 NNW 9 11 5 6 1013.9 1013.8 0.0
 
Date/Time
CST
Temp
°C
App
Temp
°C
Dew
Point
°C
Rel
Hum
%
Delta-T
°C
Wind Press
QNH
hPa
Press
MSL
hPa
Rain since
9am
mm
Dir  Spd
km/h
Gust
km/h
Spd
kts
Gust
kts
29/11:30pm 19.1 14.8 5.2 40 6.8 WNW 17 19 9 10 1014.3 1014.2 0.0
29/11:00pm 18.5 14.8 6.4 45 6.0 WNW 15 17 8 9 1014.3 1014.2 0.0
29/10:30pm 18.7 18.0 6.9 46 5.9 CALM 0 0 0 0 1014.0 1013.9 0.0
29/10:00pm 18.0 15.9 6.5 47 5.7 ENE 7 9 4 5 1013.4 1013.3 0.0
29/09:30pm 18.7 15.8 6.5 45 6.1 E 11 15 6 8 1013.3 1013.2 0.0
29/09:00pm 19.0 16.0 6.2 43 6.4 E 11 13 6 7 1013.4 1013.3 0.0
29/08:30pm 19.5 16.6 6.3 42 6.6 ESE 11 13 6 7 1013.4 1013.3 0.0
29/08:00pm 19.7 17.9 7.8 46 6.1 SE 7 9 4 5 1014.2 1014.1 0.0
29/07:30pm 20.3 17.3 7.7 44 6.5 SSW 13 17 7 9 1014.6 1014.5 0.0
29/07:11pm 21.0 16.4 5.4 36 7.7 NW 19 32 10 17 1014.0 1013.9 0.0
29/07:00pm 21.9 15.9 3.6 30 8.8 WSW 24 33 13 18 1016.0 1015.9 0.0
29/06:30pm 22.7 19.1 2.8 27 9.5 SE 11 19 6 10 1014.8 1014.7 0.0
29/06:00pm 23.6 19.7 1.3 23 10.4 SE 11 17 6 9 1014.3 1014.2 0.0
29/05:30pm 23.5 21.8 1.8 24 10.2 CALM 0 0 0 0 1014.8 1014.7 0.0
29/05:00pm 24.1 22.3 1.1 22 10.7 CALM 0 4 0 2 1014.7 1014.6 0.0
29/04:30pm 24.3 20.8 1.2 22 10.8 E 9 15 5 8 1014.5 1014.4 0.0
29/04:00pm 24.6 18.9 0.8 21 11.1 ESE 20 28 11 15 1013.8 1013.7 0.0
29/03:30pm 24.8 17.5 0.3 20 11.3 E 28 35 15 19 1013.7 1013.6 0.0
29/03:00pm 24.7 18.2 0.3 20 11.3 ENE 24 28 13 15 1014.4 1014.3 0.0
29/02:30pm 24.7 19.8 -0.4 19 11.4 ENE 15 19 8 10 1015.2 1015.1 0.0
29/02:00pm 24.5 19.3 0.1 20 11.2 ESE 17 22 9 12 1015.3 1015.2 0.0
29/01:30pm 24.2 19.6 -0.9 19 11.3 ENE 13 17 7 9 1016.5 1016.4 0.0
29/01:00pm 24.0 18.7 -0.3 20 11.0 ESE 17 19 9 10 1016.4 1016.3 0.0
29/12:30pm 23.4 18.6 -0.1 21 10.7 E 15 20 8 11 1016.7 1016.6 0.0
29/12:00pm 23.0 17.4 0.2 22 10.4 ESE 19 22 10 12 1016.7 1016.6 0.0
29/11:30am 22.3 17.5 0.2 23 10.0 ESE 15 20 8 11 1017.4 1017.3 0.0
29/11:00am 21.9 17.1 0.4 24 9.7 ESE 15 19 8 10 1018.0 1017.9 0.0
29/10:30am 21.3 17.3 0.5 25 9.4 ESE 11 15 6 8 1018.3 1018.2 0.0
29/10:00am 20.8 16.4 0.6 26 9.1 E 13 19 7 10 1018.4 1018.3 0.0
29/09:30am 20.3 15.6 0.7 27 8.8 E 15 19 8 10 1018.3 1018.2 0.0
29/09:00am 19.9 14.7 -0.1 26 8.8 NE 17 24 9 13 1018.2 1018.1 0.0
29/08:30am 19.6 13.5 0.1 27 8.6 NE 22 28 12 15 1017.5 1017.4 0.0
29/08:00am 19.4 12.5 -0.1 27 8.6 ENE 26 33 14 18 1017.3 1017.2 0.0
29/07:30am 17.8 11.3 0.5 31 7.6 ENE 24 30 13 16 1016.6 1016.5 0.0
29/07:00am 16.4 10.9 0.5 34 6.9 NE 19 22 10 12 1016.6 1016.5 0.0
29/06:30am 15.1 10.0 0.5 37 6.2 ENE 17 20 9 11 1016.4 1016.3 0.0
29/06:00am 14.5 9.0 0.7 39 5.9 ENE 19 24 10 13 1015.7 1015.6 0.0
29/05:30am 14.1 8.6 0.7 40 5.7 ENE 19 22 10 12 1015.4 1015.3 0.0
29/05:00am 13.9 8.8 0.9 41 5.5 ENE 17 20 9 11 1015.2 1015.1 0.0
29/04:30am 13.6 9.3 1.3 43 5.3 ENE 13 17 7 9 1015.2 1015.1 0.0
29/04:00am 11.5 7.7 1.5 50 4.2 E 11 13 6 7 1015.3 1015.2 0.0
29/03:30am 11.6 7.8 1.5 50 4.3 E 11 13 6 7 1015.5 1015.4 0.0
29/03:00am 12.0 7.7 1.3 48 4.5 E 13 15 7 8 1015.8 1015.7 0.0
29/02:30am 11.8 7.9 1.2 48 4.5 ENE 11 13 6 7 1015.9 1015.8 0.0
29/02:00am 12.0 8.5 1.1 47 4.6 ENE 9 11 5 6 1016.5 1016.4 0.0
29/01:30am 12.4 8.5 1.1 46 4.8 ENE 11 13 6 7 1016.8 1016.7 0.0
29/01:00am 13.0 9.5 1.0 44 5.1 ENE 9 11 5 6 1017.6 1017.5 0.0
29/12:30am 12.8 9.2 0.9 44 5.0 E 9 13 5 7 1017.9 1017.8 0.0
29/12:00am 13.6 10.4 0.9 42 5.4 NE 7 9 4 5 1018.4 1018.3 0.0
 
Date/Time
CST
Temp
°C
App
Temp
°C
Dew
Point
°C
Rel
Hum
%
Delta-T
°C
Wind Press
QNH
hPa
Press
MSL
hPa
Rain since
9am
mm
Dir  Spd
km/h
Gust
km/h
Spd
kts
Gust
kts
28/11:30pm 14.6 10.6 0.5 38 6.0 E 11 13 6 7 1018.4 1018.3 0.0
28/11:00pm 15.0 10.6 0.1 36 6.3 E 13 15 7 8 1018.5 1018.4 0.0
28/10:30pm 16.3 11.8 0.0 33 7.0 E 13 15 7 8 1018.8 1018.7 0.0
28/10:00pm 17.7 12.9 -0.1 30 7.7 ENE 15 19 8 10 1018.9 1018.8 0.0
28/09:30pm 17.0 12.2 0.2 32 7.2 ENE 15 17 8 9 1019.0 1018.9 0.0
28/09:00pm 16.6 11.8 -0.1 32 7.1 ENE 15 17 8 9 1019.1 1019.0 0.0
28/08:30pm 16.9 12.5 0.1 32 7.2 E 13 15 7 8 1019.1 1019.0 0.0
28/08:00pm 17.7 13.2 -0.5 29 7.8 E 13 13 7 7 1019.0 1018.9 0.0
28/07:30pm 18.9 14.3 -1.0 26 8.5 E 13 13 7 7 1018.8 1018.7 0.0
28/07:00pm 20.2 15.9 -1.6 23 9.4 E 11 15 6 8 1018.9 1018.8 0.0
28/06:30pm 21.7 16.2 -2.2 20 10.2 E 17 19 9 10 1018.7 1018.6 0.0
28/06:00pm 23.4 17.3 -2.2 18 11.1 E 20 24 11 13 1018.7 1018.6 0.0
28/05:30pm 24.3 17.7 -3.1 16 11.8 E 22 26 12 14 1018.8 1018.7 0.0
28/05:00pm 24.6 17.8 -2.0 17 11.8 ESE 24 32 13 17 1018.6 1018.5 0.0
28/04:30pm 25.3 18.8 -2.3 16 12.2 E 22 26 12 14 1018.6 1018.5 0.0
28/04:00pm 25.7 19.3 -2.0 16 12.4 E 22 30 12 16 1018.5 1018.4 0.0
28/03:30pm 25.7 19.6 -2.0 16 12.3 E 20 30 11 16 1018.7 1018.6 0.0
28/03:00pm 25.5 19.4 -2.1 16 12.2 E 20 28 11 15 1018.9 1018.8 0.0
28/02:30pm 25.4 19.5 -2.2 16 12.2 E 19 35 10 19 1019.3 1019.2 0.0

Other formats

Comma delimited format used in spreadsheet applications
http://www.bom.gov.au/fwo/IDS60801/IDS60801.95481.axf

JavaScript Object Notation format (JSON) in row-major order
http://www.bom.gov.au/fwo/IDS60801/IDS60801.95481.json

Data quality

Most of these data are generated automatically and are frequently updated. Quality checks on data are not normally performed. It is possible for incorrect values to appear. Refer to information at About Latest Weather Observations and please check the disclaimer before using these data.